Sanuki Maru — JG5378 — position and weather

sailwx.info

Track history (hours):
 
Tides and Currents Weather Stations Pressure Air Temp Water Temp Dewpoint Dewpoint Depression Visibility Wind Speed Wind Dir Waves Ship Positions

Sanuki Maru

Last reported at 2018-Feb-20 19:00 UTC. Time now 2018-Feb-20 19:26 UTC.
Position N 35°25' E 139°41'.

Length 36 m; draft 3.8 m.

Type: Tug. MMSI: 431100769.

Date/timePositionNaut miles runAvg speedWind from/ knotsBaromVisibWave heightAir tempDewpointWater temp
2018-Feb-20 19:00N 35°25' E 139°41'0 0.0
2018-Feb-20 18:30N 35°25' E 139°41'0 0.0
2018-Feb-20 18:00N 35°25' E 139°41'0 0.0
2018-Feb-20 17:31N 35°25' E 139°41'0 0.0
2018-Feb-20 17:00N 35°25' E 139°41'0 0.0
2018-Feb-20 16:31N 35°25' E 139°41'0 0.0
2018-Feb-20 16:01N 35°25' E 139°41'0 0.0
2018-Feb-20 15:31N 35°25' E 139°41'0 0.0
2018-Feb-20 15:01N 35°25' E 139°41'0 0.0
2018-Feb-20 14:30N 35°25' E 139°41'0 0.0
2018-Feb-20 14:00N 35°25' E 139°41'0 0.0
2018-Feb-20 13:30N 35°25' E 139°41'0 0.0
2018-Feb-20 13:01N 35°25' E 139°41'0 0.0
2018-Feb-20 12:30N 35°25' E 139°41'0 0.0
2018-Feb-20 12:00N 35°25' E 139°41'0 0.0
2018-Feb-20 11:30N 35°25' E 139°41'0 0.0
2018-Feb-20 11:01N 35°25' E 139°41'0 0.0
2018-Feb-20 10:31N 35°25' E 139°41'0 0.0
2018-Feb-20 10:00N 35°25' E 139°41'0 0.0
2018-Feb-20 09:30N 35°25' E 139°41'0 0.0
2018-Feb-20 09:00N 35°25' E 139°41'0 0.0
2018-Feb-20 08:30N 35°25' E 139°41'0 0.0
2018-Feb-20 08:00N 35°25' E 139°41'0 0.0
2018-Feb-20 07:31N 35°25' E 139°41'1 2.5
2018-Feb-20 07:01N 35°24' E 139°42'1 1.9
2018-Feb-20 06:30N 35°24' E 139°40'2 3.8
2018-Feb-20 06:01N 35°24' E 139°38'0 0.3
2018-Feb-20 05:30N 35°24' E 139°38'3 5.3
2018-Feb-20 05:00N 35°24' E 139°41'2 3.1
2018-Feb-20 04:30N 35°25' E 139°41'0 0.0
2018-Feb-20 04:00N 35°25' E 139°41'0 0.0
2018-Feb-20 03:30N 35°25' E 139°41'0 0.0
2018-Feb-20 03:00N 35°25' E 139°41'0 0.0
2018-Feb-20 02:30N 35°25' E 139°41'0 0.0
2018-Feb-20 02:01N 35°25' E 139°41'0 0.0
2018-Feb-20 01:30N 35°25' E 139°41'0 0.0
2018-Feb-20 01:00N 35°25' E 139°41'0 0.0
2018-Feb-20 00:30N 35°25' E 139°41'0 0.0
2018-Feb-20 00:00N 35°25' E 139°41'0 0.0
2018-Feb-19 23:30N 35°25' E 139°41'0 0.0
2018-Feb-19 23:00N 35°25' E 139°41'0 0.0
2018-Feb-19 22:30N 35°25' E 139°41'0 0.0
2018-Feb-19 22:01N 35°25' E 139°41'0 0.0
2018-Feb-19 21:30N 35°25' E 139°41'0 0.0
2018-Feb-19 21:00N 35°25' E 139°41'0 0.0
2018-Feb-19 20:30N 35°25' E 139°41'0 0.0
2018-Feb-19 20:01N 35°25' E 139°41'0 0.0
2018-Feb-19 19:30N 35°25' E 139°41'0 0.0
2018-Feb-19 19:00N 35°25' E 139°41'0 0.0
2018-Feb-19 18:31N 35°25' E 139°41'0 0.0
2018-Feb-19 18:00N 35°25' E 139°41'0 0.0
2018-Feb-19 17:31N 35°25' E 139°41'0 0.0
2018-Feb-19 17:01N 35°25' E 139°41'0 0.0
2018-Feb-19 16:30N 35°25' E 139°41'0 0.0
2018-Feb-19 16:00N 35°25' E 139°41'0 0.0
2018-Feb-19 15:31N 35°25' E 139°41'0 0.0
2018-Feb-19 15:00N 35°25' E 139°41'0 0.0
2018-Feb-19 14:30N 35°25' E 139°41'1 2.7
2018-Feb-19 14:01N 35°24' E 139°42'4 7.7
2018-Feb-19 13:30N 35°20' E 139°40'1 1.4
2018-Feb-19 13:01N 35°21' E 139°41'2 3.9
2018-Feb-19 12:30N 35°20' E 139°43'2 3.2
2018-Feb-19 12:00N 35°19' E 139°44'2 4.3
2018-Feb-19 11:30N 35°17' E 139°46'2 4.3
2018-Feb-19 11:01N 35°15' E 139°47'2 4.5
2018-Feb-19 10:30N 35°13' E 139°47'2 4.4
2018-Feb-19 10:00N 35°11' E 139°47'3 5.6
2018-Feb-19 09:31N 35°08' E 139°47'3 5.4
2018-Feb-19 09:01N 35°05' E 139°46'2 4.1
2018-Feb-19 08:30N 35°03' E 139°45'15 3.3
2018-Feb-19 03:59N 34°56' E 140°02'4 6.6
2018-Feb-19 03:20N 34°59' E 140°06'  
Track history (hours):
 
Tides and Currents Weather Stations Pressure Air Temp Water Temp Dewpoint Dewpoint Depression Visibility Wind Speed Wind Dir Waves Ship Positions

Sanuki Maru

Last reported at 2018-Feb-20 19:00 UTC. Time now 2018-Feb-20 19:26 UTC.
Position N 35°25' E 139°41'.

Length 36 m; draft 3.8 m.

Type: Tug. MMSI: 431100769.

Date/timePositionNaut miles runAvg speedWind from/ knotsBaromVisibWave heightAir tempDewpointWater temp
2018-Feb-20 19:00N 35°25' E 139°41'0 0.0
2018-Feb-20 18:30N 35°25' E 139°41'0 0.0
2018-Feb-20 18:00N 35°25' E 139°41'0 0.0
2018-Feb-20 17:31N 35°25' E 139°41'0 0.0
2018-Feb-20 17:00N 35°25' E 139°41'0 0.0
2018-Feb-20 16:31N 35°25' E 139°41'0 0.0
2018-Feb-20 16:01N 35°25' E 139°41'0 0.0
2018-Feb-20 15:31N 35°25' E 139°41'0 0.0
2018-Feb-20 15:01N 35°25' E 139°41'0 0.0
2018-Feb-20 14:30N 35°25' E 139°41'0 0.0
2018-Feb-20 14:00N 35°25' E 139°41'0 0.0
2018-Feb-20 13:30N 35°25' E 139°41'0 0.0
2018-Feb-20 13:01N 35°25' E 139°41'0 0.0
2018-Feb-20 12:30N 35°25' E 139°41'0 0.0
2018-Feb-20 12:00N 35°25' E 139°41'0 0.0
2018-Feb-20 11:30N 35°25' E 139°41'0 0.0
2018-Feb-20 11:01N 35°25' E 139°41'0 0.0
2018-Feb-20 10:31N 35°25' E 139°41'0 0.0
2018-Feb-20 10:00N 35°25' E 139°41'0 0.0
2018-Feb-20 09:30N 35°25' E 139°41'0 0.0
2018-Feb-20 09:00N 35°25' E 139°41'0 0.0
2018-Feb-20 08:30N 35°25' E 139°41'0 0.0
2018-Feb-20 08:00N 35°25' E 139°41'0 0.0
2018-Feb-20 07:31N 35°25' E 139°41'1 2.5
2018-Feb-20 07:01N 35°24' E 139°42'1 1.9
2018-Feb-20 06:30N 35°24' E 139°40'2 3.8
2018-Feb-20 06:01N 35°24' E 139°38'0 0.3
2018-Feb-20 05:30N 35°24' E 139°38'3 5.3
2018-Feb-20 05:00N 35°24' E 139°41'2 3.1
2018-Feb-20 04:30N 35°25' E 139°41'0 0.0
2018-Feb-20 04:00N 35°25' E 139°41'0 0.0
2018-Feb-20 03:30N 35°25' E 139°41'0 0.0
2018-Feb-20 03:00N 35°25' E 139°41'0 0.0
2018-Feb-20 02:30N 35°25' E 139°41'0 0.0
2018-Feb-20 02:01N 35°25' E 139°41'0 0.0
2018-Feb-20 01:30N 35°25' E 139°41'0 0.0
2018-Feb-20 01:00N 35°25' E 139°41'0 0.0
2018-Feb-20 00:30N 35°25' E 139°41'0 0.0
2018-Feb-20 00:00N 35°25' E 139°41'0 0.0
2018-Feb-19 23:30N 35°25' E 139°41'0 0.0
2018-Feb-19 23:00N 35°25' E 139°41'0 0.0
2018-Feb-19 22:30N 35°25' E 139°41'0 0.0
2018-Feb-19 22:01N 35°25' E 139°41'0 0.0
2018-Feb-19 21:30N 35°25' E 139°41'0 0.0
2018-Feb-19 21:00N 35°25' E 139°41'0 0.0
2018-Feb-19 20:30N 35°25' E 139°41'0 0.0
2018-Feb-19 20:01N 35°25' E 139°41'0 0.0
2018-Feb-19 19:30N 35°25' E 139°41'0 0.0
2018-Feb-19 19:00N 35°25' E 139°41'0 0.0
2018-Feb-19 18:31N 35°25' E 139°41'0 0.0
2018-Feb-19 18:00N 35°25' E 139°41'0 0.0
2018-Feb-19 17:31N 35°25' E 139°41'0 0.0
2018-Feb-19 17:01N 35°25' E 139°41'0 0.0
2018-Feb-19 16:30N 35°25' E 139°41'0 0.0
2018-Feb-19 16:00N 35°25' E 139°41'0 0.0
2018-Feb-19 15:31N 35°25' E 139°41'0 0.0
2018-Feb-19 15:00N 35°25' E 139°41'0 0.0
2018-Feb-19 14:30N 35°25' E 139°41'1 2.7
2018-Feb-19 14:01N 35°24' E 139°42'4 7.7
2018-Feb-19 13:30N 35°20' E 139°40'1 1.4
2018-Feb-19 13:01N 35°21' E 139°41'2 3.9
2018-Feb-19 12:30N 35°20' E 139°43'2 3.2
2018-Feb-19 12:00N 35°19' E 139°44'2 4.3
2018-Feb-19 11:30N 35°17' E 139°46'2 4.3
2018-Feb-19 11:01N 35°15' E 139°47'2 4.5
2018-Feb-19 10:30N 35°13' E 139°47'2 4.4
2018-Feb-19 10:00N 35°11' E 139°47'3 5.6
2018-Feb-19 09:31N 35°08' E 139°47'3 5.4
2018-Feb-19 09:01N 35°05' E 139°46'2 4.1
2018-Feb-19 08:30N 35°03' E 139°45'15 3.3
2018-Feb-19 03:59N 34°56' E 140°02'4 6.6
2018-Feb-19 03:20N 34°59' E 140°06'  

Dump ship's entire track history